createdAt,value
2022-09-14T00:01:08.149Z,100062.19
2022-09-14T00:03:36.704Z,100058.00
2022-09-14T00:06:14.535Z,100051.63
2022-09-14T00:08:41.017Z,100054.69
2022-09-14T00:11:11.763Z,100046.31
2022-09-14T00:13:39.702Z,100039.06
2022-09-14T00:16:10.341Z,100038.22
2022-09-14T00:18:36.872Z,100038.53
2022-09-14T00:21:08.566Z,100034.91
2022-09-14T00:23:37.243Z,100015.94
2022-09-14T00:26:10.411Z,100017.91
2022-09-14T00:28:38.807Z,100008.97
2022-09-14T00:31:05.888Z,100015.97
2022-09-14T00:33:32.402Z,100013.50
2022-09-14T00:36:08.728Z,100009.56
2022-09-14T00:38:35.780Z,100003.44
2022-09-14T00:41:04.016Z,99994.22
2022-09-14T00:43:30.697Z,99987.81
2022-09-14T00:45:59.730Z,99995.91
2022-09-14T00:48:27.465Z,100003.13
2022-09-14T00:50:54.181Z,99999.81
2022-09-14T00:53:20.825Z,100006.25
2022-09-14T00:55:47.744Z,100006.25
2022-09-14T00:58:14.354Z,100005.41
2022-09-14T01:00:40.866Z,100003.72
2022-09-14T01:03:07.334Z,100002.91
2022-09-14T01:05:53.716Z,100007.38
2022-09-14T01:08:23.129Z,100017.41
2022-09-14T01:11:39.845Z,100014.31
2022-09-14T01:14:20.715Z,100021.28
2022-09-14T01:17:10.780Z,100020.72
2022-09-14T01:22:34.661Z,100019.63
2022-09-14T01:25:47.172Z,100016.28
2022-09-14T01:28:26.343Z,100003.22
2022-09-14T01:30:54.437Z,100002.91
2022-09-14T01:33:40.310Z,100001.78
2022-09-14T01:36:09.983Z,100004.56
2022-09-14T01:38:47.741Z,100007.69
2022-09-14T01:41:18.203Z,100001.25
2022-09-14T01:44:04.205Z,99995.66
2022-09-14T01:46:39.799Z,99987.56
2022-09-14T01:49:32.784Z,99982.81
2022-09-14T01:52:10.986Z,99987.28
2022-09-14T01:54:55.433Z,99984.50
2022-09-14T01:57:27.695Z,99986.97
2022-09-14T01:59:58.729Z,99982.22
2022-09-14T02:02:37.974Z,99975.53
2022-09-14T02:05:19.627Z,99977.19
2022-09-14T02:07:46.167Z,99959.88
2022-09-14T02:10:15.226Z,99965.19
2022-09-14T02:12:42.518Z,99945.63
2022-09-14T02:15:11.089Z,99952.06
2022-09-14T02:17:38.056Z,99952.84
2022-09-14T02:20:07.769Z,99952.06
2022-09-14T02:22:34.179Z,99947.59
2022-09-14T02:25:00.751Z,99939.72
2022-09-14T02:27:27.124Z,99934.75
2022-09-14T02:29:53.937Z,99935.56
2022-09-14T02:32:40.546Z,99938.38
2022-09-14T02:35:24.771Z,99932.78
2022-09-14T02:38:12.994Z,99926.38
2022-09-14T02:40:49.695Z,99926.69
2022-09-14T02:43:33.257Z,99929.47
2022-09-14T02:46:21.307Z,99919.41
2022-09-14T02:49:07.883Z,99924.69
2022-09-14T02:51:46.426Z,99916.63
2022-09-14T02:54:42.388Z,99918.59
2022-09-14T02:57:09.925Z,99904.63
2022-09-14T02:59:36.265Z,99902.94
2022-09-14T03:02:02.685Z,99900.16
2022-09-14T03:04:29.132Z,99909.66
2022-09-14T03:06:55.539Z,99902.94
2022-09-14T03:09:21.919Z,99895.41
2022-09-14T03:11:48.411Z,99897.91
2022-09-14T03:14:14.767Z,99896.75
2022-09-14T03:16:41.197Z,99889.53
2022-09-14T03:19:07.609Z,99888.38
2022-09-14T03:21:34.264Z,99883.63
2022-09-14T03:24:00.642Z,99883.94
2022-09-14T03:26:29.167Z,99883.94
2022-09-14T03:28:57.897Z,99891.50
2022-09-14T03:31:25.755Z,99885.34
2022-09-14T03:33:56.481Z,99878.41
2022-09-14T03:36:24.063Z,99875.09
2022-09-14T03:38:52.749Z,99879.84
2022-09-14T03:41:20.083Z,99880.13
2022-09-14T03:43:46.919Z,99874.56
2022-09-14T03:46:15.908Z,99874.28
2022-09-14T03:48:43.091Z,99870.63
2022-09-14T03:51:11.168Z,99875.91
2022-09-14T03:53:38.213Z,99873.66
2022-09-14T03:56:16.388Z,99873.66
2022-09-14T03:58:43.993Z,99868.91
2022-09-14T04:01:16.014Z,99869.44
2022-09-14T04:03:42.773Z,99862.19
2022-09-14T04:06:09.977Z,99863.84
2022-09-14T04:08:40.048Z,99872.78
2022-09-14T04:11:14.900Z,99866.03
2022-09-14T04:13:43.538Z,99868.84
2022-09-14T04:16:10.346Z,99864.91
2022-09-14T04:18:36.859Z,99858.50
2022-09-14T04:21:08.391Z,99855.41
2022-09-14T04:23:42.276Z,99844.25
2022-09-14T04:26:19.516Z,99848.16
2022-09-14T04:28:46.232Z,99848.16
2022-09-14T04:31:13.825Z,99849.28
2022-09-14T04:33:43.031Z,99855.41
2022-09-14T04:36:12.138Z,99845.09
2022-09-14T04:38:39.781Z,99839.50
2022-09-14T04:41:08.592Z,99846.44
2022-09-14T04:43:35.863Z,99840.34
2022-09-14T04:46:04.691Z,99843.13
2022-09-14T04:48:33.680Z,99835.31
2022-09-14T04:51:23.338Z,99836.75
2022-09-14T04:53:52.138Z,99836.53
2022-09-14T04:56:21.656Z,99830.09
2022-09-14T04:58:51.871Z,99827.91
2022-09-14T05:01:23.299Z,99827.09
2022-09-14T05:03:50.672Z,99816.81
2022-09-14T05:06:22.769Z,99818.47
2022-09-14T05:08:50.873Z,99805.94
2022-09-14T05:11:19.801Z,99801.47
2022-09-14T05:13:49.996Z,99798.97
2022-09-14T05:16:22.572Z,99805.41
2022-09-14T05:18:49.898Z,99802.09
2022-09-14T05:21:19.551Z,99798.19
2022-09-14T05:23:46.546Z,99790.91
2022-09-14T05:26:14.373Z,99796.50
2022-09-14T05:28:40.741Z,99802.69
2022-09-14T05:31:10.108Z,99808.28
2022-09-14T05:33:37.273Z,99813.03
2022-09-14T05:36:06.289Z,99809.09
2022-09-14T05:38:34.391Z,99809.91
2022-09-14T05:41:01.425Z,99801.25
2022-09-14T05:43:29.159Z,99802.09
2022-09-14T05:45:55.931Z,99812.13
2022-09-14T05:48:22.365Z,99807.91
2022-09-14T05:50:48.703Z,99809.25
2022-09-14T05:53:15.053Z,99809.81
2022-09-14T05:55:41.460Z,99815.41
2022-09-14T05:58:07.832Z,99818.69
2022-09-14T06:00:34.184Z,99807.53
2022-09-14T06:03:00.649Z,99809.19
2022-09-14T06:05:28.090Z,99806.94
2022-09-14T06:07:54.856Z,99810.28
2022-09-14T06:10:21.504Z,99813.56
2022-09-14T06:12:51.186Z,99804.91
2022-09-14T06:15:19.885Z,99804.03
2022-09-14T06:17:46.264Z,99802.25
2022-09-14T06:20:14.305Z,99812.53
2022-09-14T06:22:41.003Z,99813.31
2022-09-14T06:25:07.785Z,99793.16
2022-09-14T06:27:34.399Z,99791.94
2022-09-14T06:30:00.809Z,99796.91
2022-09-14T06:32:30.389Z,99792.72
2022-09-14T06:34:56.816Z,99795.19
2022-09-14T06:37:23.228Z,99796.00
2022-09-14T06:39:49.620Z,99795.72
2022-09-14T06:42:16.335Z,99791.25
2022-09-14T06:44:42.738Z,99792.94
2022-09-14T06:47:09.192Z,99788.19
2022-09-14T06:49:35.625Z,99785.06
2022-09-14T06:52:02.181Z,99785.59
2022-09-14T06:54:28.673Z,99789.53
2022-09-14T06:56:55.037Z,99796.25
2022-09-14T06:59:21.634Z,99801.81
2022-09-14T07:01:50.728Z,99790.66
2022-09-14T07:04:17.701Z,99789.81
2022-09-14T07:06:49.663Z,99791.47
2022-09-14T07:09:17.814Z,99808.25
2022-09-14T07:11:44.428Z,99800.47
2022-09-14T07:14:11.547Z,99798.53
2022-09-14T07:16:39.927Z,99800.19
2022-09-14T07:19:10.531Z,99802.16
2022-09-14T07:21:37.125Z,99793.75
2022-09-14T07:24:04.041Z,99798.19
2022-09-14T07:26:33.583Z,99797.91
2022-09-14T07:29:02.349Z,99795.13
2022-09-14T07:31:34.376Z,99781.13
2022-09-14T07:34:03.388Z,99788.41
2022-09-14T07:36:34.617Z,99790.03
2022-09-14T07:39:04.318Z,99788.91
2022-09-14T07:41:31.082Z,99774.94
2022-09-14T07:44:00.167Z,99767.09
2022-09-14T07:46:28.637Z,99763.69
2022-09-14T07:48:56.924Z,99766.72
2022-09-14T07:51:24.424Z,99761.34
2022-09-14T07:53:51.283Z,99760.72
2022-09-14T07:56:17.768Z,99763.16
2022-09-14T07:58:45.025Z,99772.59
2022-09-14T08:01:15.075Z,99773.97
2022-09-14T08:03:46.765Z,99772.81
2022-09-14T08:06:22.486Z,99781.13
2022-09-14T08:08:51.444Z,99787.56
2022-09-14T08:11:27.217Z,99784.53
2022-09-14T08:13:56.871Z,99782.66
2022-09-14T08:16:25.231Z,99780.69
2022-09-14T08:18:56.791Z,99787.69
2022-09-14T08:21:23.714Z,99779.03
2022-09-14T08:23:50.251Z,99780.38
2022-09-14T08:26:19.959Z,99779.47
2022-09-14T08:28:47.460Z,99785.88
2022-09-14T08:31:21.037Z,99797.56
2022-09-14T08:33:52.662Z,99793.16
2022-09-14T08:36:21.096Z,99812.19
2022-09-14T08:38:48.249Z,99797.91
2022-09-14T08:41:31.813Z,99798.75
2022-09-14T08:44:01.961Z,99795.94
2022-09-14T08:46:35.712Z,99794.19
2022-09-14T08:49:05.394Z,99788.22
2022-09-14T08:51:31.789Z,99790.31
2022-09-14T08:53:59.492Z,99785.13
2022-09-14T08:56:32.646Z,99788.38
2022-09-14T08:59:29.964Z,99775.44
2022-09-14T09:02:24.066Z,99776.47
2022-09-14T09:05:17.692Z,99790.34
2022-09-14T09:08:08.928Z,99785.38
2022-09-14T09:10:38.917Z,99786.63
2022-09-14T09:13:07.578Z,99796.56
2022-09-14T09:15:55.118Z,99800.75
2022-09-14T09:18:27.706Z,99785.00
2022-09-14T09:21:02.802Z,99775.16
2022-09-14T09:23:33.152Z,99773.19
2022-09-14T09:26:18.286Z,99772.16
2022-09-14T09:28:50.945Z,99773.91
2022-09-14T09:31:19.859Z,99770.38
2022-09-14T09:33:49.458Z,99774.09
2022-09-14T09:36:17.215Z,99773.97
2022-09-14T09:38:43.669Z,99781.00
2022-09-14T09:41:21.910Z,99777.69
2022-09-14T09:44:00.339Z,99766.41
2022-09-14T09:46:32.687Z,99762.84
2022-09-14T09:49:03.132Z,99751.59
2022-09-14T09:51:34.359Z,99744.88
2022-09-14T09:54:09.604Z,99754.44
2022-09-14T09:56:40.415Z,99751.97
2022-09-14T09:59:28.371Z,99749.16
2022-09-14T10:01:56.960Z,99739.25
2022-09-14T10:04:28.795Z,99737.97
2022-09-14T10:06:57.659Z,99736.19
2022-09-14T10:09:27.657Z,99730.09
2022-09-14T10:12:02.391Z,99731.34
2022-09-14T10:14:32.002Z,99724.22
2022-09-14T10:17:07.727Z,99730.28
2022-09-14T10:19:34.598Z,99731.25
2022-09-14T10:22:26.405Z,99745.38
2022-09-14T10:24:57.130Z,99734.44
2022-09-14T10:27:39.525Z,99731.44
2022-09-14T10:30:12.206Z,99735.72
2022-09-14T10:32:40.449Z,99729.06
2022-09-14T10:35:14.681Z,99733.16
2022-09-14T10:37:56.424Z,99737.00
2022-09-14T10:40:36.064Z,99730.16
2022-09-14T10:43:12.811Z,99732.56
2022-09-14T10:45:50.564Z,99718.16
2022-09-14T10:48:25.668Z,99724.91
2022-09-14T10:51:11.175Z,99720.47
2022-09-14T10:54:04.177Z,99716.84
2022-09-14T10:56:55.963Z,99711.22
2022-09-14T10:59:35.536Z,99712.38
2022-09-14T11:02:43.340Z,99717.13
2022-09-14T11:05:21.904Z,99708.72
2022-09-14T11:07:48.177Z,99707.25
2022-09-14T11:10:29.059Z,99706.31
2022-09-14T11:13:26.757Z,99705.38
2022-09-14T11:16:47.572Z,99713.97
2022-09-14T11:19:24.681Z,99713.34
2022-09-14T11:22:17.071Z,99703.34
2022-09-14T11:24:50.029Z,99698.16
2022-09-14T11:27:36.827Z,99704.78
2022-09-14T11:30:09.922Z,99692.63
2022-09-14T11:32:54.264Z,99682.94
2022-09-14T11:35:45.789Z,99687.72
2022-09-14T11:38:24.739Z,99686.25
2022-09-14T11:41:15.859Z,99689.25
2022-09-14T11:43:52.585Z,99693.00
2022-09-14T11:46:25.390Z,99681.50
2022-09-14T11:48:58.935Z,99683.47
2022-09-14T11:51:33.231Z,99679.47
2022-09-14T11:53:59.649Z,99665.47
2022-09-14T11:56:29.511Z,99666.28
2022-09-14T11:58:58.793Z,99664.31
2022-09-14T12:01:32.024Z,99657.41
2022-09-14T12:04:01.502Z,99655.41
2022-09-14T12:06:30.911Z,99658.41
2022-09-14T12:09:25.020Z,99657.13
2022-09-14T12:11:53.836Z,99651.69
2022-09-14T12:14:32.066Z,99640.84
2022-09-14T12:20:33.917Z,99657.78
2022-09-14T12:23:12.777Z,99655.84
2022-09-14T12:25:52.341Z,99654.34
2022-09-14T12:28:38.729Z,99649.13
2022-09-14T12:31:05.139Z,99644.13
2022-09-14T12:33:34.670Z,99650.50
2022-09-14T12:36:10.770Z,99652.59
2022-09-14T12:38:37.068Z,99657.81
2022-09-14T12:41:23.342Z,99654.38
2022-09-14T12:43:54.261Z,99668.53
2022-09-14T12:46:20.739Z,99675.78
2022-09-14T12:48:47.125Z,99664.75
2022-09-14T12:51:32.414Z,99662.44
2022-09-14T12:53:59.057Z,99661.63
2022-09-14T12:56:38.218Z,99655.69
2022-09-14T12:59:30.605Z,99644.28
2022-09-14T13:02:43.464Z,99635.69
2022-09-14T13:05:16.240Z,99624.31
2022-09-14T13:07:43.362Z,99617.03
2022-09-14T13:10:19.938Z,99610.94
2022-09-14T13:12:48.411Z,99610.41
2022-09-14T13:15:14.687Z,99614.38
2022-09-14T13:17:56.699Z,99622.59
2022-09-14T13:20:23.360Z,99620.75
2022-09-14T13:22:49.885Z,99616.94
2022-09-14T13:25:34.481Z,99605.19
2022-09-14T13:28:15.192Z,99618.22
2022-09-14T13:30:43.129Z,99630.22
2022-09-14T13:33:17.324Z,99641.50
2022-09-14T13:35:48.847Z,99644.41
2022-09-14T13:38:19.340Z,99638.97
2022-09-14T13:40:49.079Z,99632.44
2022-09-14T13:43:17.203Z,99628.13
2022-09-14T13:45:43.755Z,99625.97
2022-09-14T13:48:13.954Z,99642.25
2022-09-14T13:50:44.163Z,99638.41
2022-09-14T13:53:42.732Z,99640.00
2022-09-14T13:56:35.301Z,99644.38
2022-09-14T13:59:21.876Z,99654.56
2022-09-14T14:01:54.796Z,99655.81
2022-09-14T14:04:27.339Z,99639.34
2022-09-14T14:07:15.610Z,99640.78
2022-09-14T14:09:51.315Z,99654.06
2022-09-14T14:12:37.570Z,99653.34
2022-09-14T14:15:26.739Z,99635.47
2022-09-14T14:17:54.657Z,99615.00
2022-09-14T14:20:23.769Z,99610.13
2022-09-14T14:23:10.611Z,99608.38
2022-09-14T14:25:47.595Z,99584.97
2022-09-14T14:28:23.071Z,99583.09
2022-09-14T14:30:49.779Z,99587.03
2022-09-14T14:33:19.248Z,99586.41
2022-09-14T14:35:47.530Z,99580.00
2022-09-14T14:38:14.537Z,99600.50
2022-09-14T14:40:41.631Z,99610.88
2022-09-14T14:43:14.245Z,99619.34
2022-09-14T14:45:40.710Z,99612.94
2022-09-14T14:48:10.617Z,99615.22
2022-09-14T14:50:37.693Z,99622.06
2022-09-14T14:53:05.193Z,99608.69
2022-09-14T14:55:32.370Z,99585.81
2022-09-14T14:58:04.253Z,99566.53
2022-09-14T15:00:32.508Z,99572.44
2022-09-14T15:02:59.352Z,99581.97
2022-09-14T15:05:26.176Z,99596.88
2022-09-14T15:07:54.909Z,99603.72
2022-09-14T15:10:23.173Z,99615.31
2022-09-14T15:12:49.528Z,99622.63
2022-09-14T15:15:23.175Z,99623.25
2022-09-14T15:17:50.090Z,99605.44
2022-09-14T15:20:17.915Z,99603.34
2022-09-14T15:22:44.261Z,99599.50
2022-09-14T15:25:12.118Z,99597.13
2022-09-14T15:27:38.790Z,99601.03
2022-09-14T15:30:06.821Z,99594.59
2022-09-14T15:32:33.235Z,99587.34
2022-09-14T15:34:59.616Z,99589.34
2022-09-14T15:37:26.060Z,99584.69
2022-09-14T15:39:52.630Z,99586.94
2022-09-14T15:42:19.433Z,99582.59
2022-09-14T15:44:46.041Z,99569.22
2022-09-14T15:47:14.639Z,99573.16
2022-09-14T15:49:42.401Z,99562.88
2022-09-14T15:52:10.687Z,99562.69
2022-09-14T15:54:38.659Z,99570.00
2022-09-14T15:57:08.132Z,99566.69
2022-09-14T15:59:35.113Z,99553.03
2022-09-14T16:02:01.781Z,99552.53
2022-09-14T16:04:28.392Z,99557.34
2022-09-14T16:06:54.806Z,99569.69
2022-09-14T16:09:22.579Z,99581.97
2022-09-14T16:11:49.532Z,99588.25
2022-09-14T16:14:15.913Z,99600.25
2022-09-14T16:16:42.428Z,99610.63
2022-09-14T16:19:13.738Z,99604.50
2022-09-14T16:21:41.796Z,99614.63
2022-09-14T16:24:17.976Z,99615.47
2022-09-14T16:26:46.931Z,99624.44
2022-09-14T16:29:16.185Z,99633.09
2022-09-14T16:31:44.410Z,99648.22
2022-09-14T16:34:16.715Z,99657.38
2022-09-14T16:36:43.815Z,99667.13
2022-09-14T16:39:13.188Z,99663.19
2022-09-14T16:41:41.727Z,99670.53
2022-09-14T16:44:13.108Z,99664.13
2022-09-14T16:46:39.629Z,99673.06
2022-09-14T16:49:06.644Z,99677.25
2022-09-14T16:51:33.454Z,99681.16
2022-09-14T16:54:00.481Z,99678.38
2022-09-14T16:56:29.977Z,99672.28
2022-09-14T16:58:56.828Z,99682.00
2022-09-14T17:01:28.820Z,99685.28
2022-09-14T17:03:58.797Z,99678.91
2022-09-14T17:06:28.536Z,99675.56
2022-09-14T17:08:59.415Z,99675.34
2022-09-14T17:11:27.007Z,99669.47
2022-09-14T17:13:53.755Z,99669.53
2022-09-14T17:16:22.342Z,99670.06
2022-09-14T17:18:50.712Z,99668.09
2022-09-14T17:21:26.310Z,99679.19
2022-09-14T17:23:52.729Z,99681.72
2022-09-14T17:26:21.423Z,99682.81
2022-09-14T17:28:49.974Z,99690.06
2022-09-14T17:31:19.761Z,99690.06
2022-09-14T17:33:47.370Z,99692.03
2022-09-14T17:36:15.444Z,99693.38
2022-09-14T17:38:43.089Z,99693.38
2022-09-14T17:41:12.379Z,99685.28
2022-09-14T17:43:40.022Z,99692.94
2022-09-14T17:46:09.485Z,99689.06
2022-09-14T17:48:38.646Z,99694.13
2022-09-14T17:51:17.275Z,99685.81
2022-09-14T17:53:45.341Z,99695.63
2022-09-14T17:56:13.608Z,99693.72
2022-09-14T17:58:40.673Z,99697.13
2022-09-14T18:01:09.753Z,99701.31
2022-09-14T18:03:38.039Z,99694.66
2022-09-14T18:06:06.533Z,99695.59
2022-09-14T18:08:33.460Z,99691.72
2022-09-14T18:11:08.495Z,99692.59
2022-09-14T18:13:35.033Z,99697.63
2022-09-14T18:16:01.919Z,99699.06
2022-09-14T18:18:28.429Z,99713.03
2022-09-14T18:20:54.808Z,99710.22
2022-09-14T18:23:21.440Z,99710.31
2022-09-14T18:25:47.878Z,99711.44
2022-09-14T18:28:14.251Z,99714.81
2022-09-14T18:30:43.637Z,99723.69
2022-09-14T18:33:10.581Z,99732.06
2022-09-14T18:35:37.955Z,99730.94
2022-09-14T18:38:06.587Z,99734.84
2022-09-14T18:40:34.918Z,99741.03
2022-09-14T18:43:01.880Z,99741.03
2022-09-14T18:45:29.471Z,99732.38
2022-09-14T18:47:55.991Z,99736.88
2022-09-14T18:50:23.232Z,99734.13
2022-09-14T18:52:52.850Z,99745.56
2022-09-14T18:55:19.501Z,99756.78
2022-09-14T18:57:47.333Z,99743.97
2022-09-14T19:00:18.338Z,99750.09
2022-09-14T19:02:45.884Z,99755.69
2022-09-14T19:05:12.437Z,99754.00
2022-09-14T19:07:38.808Z,99746.22
2022-09-14T19:10:10.989Z,99750.66
2022-09-14T19:12:38.062Z,99752.59
2022-09-14T19:15:04.874Z,99753.16
2022-09-14T19:17:31.227Z,99755.72
2022-09-14T19:19:58.143Z,99759.09
2022-09-14T19:22:24.877Z,99751.31
2022-09-14T19:24:51.263Z,99744.66
2022-09-14T19:27:17.681Z,99747.22
2022-09-14T19:29:44.035Z,99746.38
2022-09-14T19:32:10.515Z,99747.50
2022-09-14T19:34:38.253Z,99752.22
2022-09-14T19:37:04.856Z,99751.09
2022-09-14T19:39:31.192Z,99749.16
2022-09-14T19:41:57.586Z,99754.13
2022-09-14T19:44:23.944Z,99754.69
2022-09-14T19:46:50.653Z,99747.97
2022-09-14T19:49:20.544Z,99747.69
2022-09-14T19:51:47.552Z,99761.34
2022-09-14T19:54:14.437Z,99766.94
2022-09-14T19:56:41.363Z,99765.78
2022-09-14T19:59:08.400Z,99773.31
2022-09-14T20:01:37.385Z,99780.31
2022-09-14T20:04:05.509Z,99776.75
2022-09-14T20:06:40.122Z,99779.81
2022-09-14T20:09:10.696Z,99783.19
2022-09-14T20:11:38.882Z,99788.19
2022-09-14T20:14:06.854Z,99788.78
2022-09-14T20:16:38.374Z,99787.69
2022-09-14T20:19:13.567Z,99790.00
2022-09-14T20:21:41.359Z,99798.41
2022-09-14T20:24:16.580Z,99793.94
2022-09-14T20:26:47.776Z,99791.19
2022-09-14T20:29:15.274Z,99787.63
2022-09-14T20:31:41.790Z,99800.16
2022-09-14T20:34:08.431Z,99801.03
2022-09-14T20:36:34.779Z,99800.19
2022-09-14T20:39:01.351Z,99796.31
2022-09-14T20:41:30.455Z,99792.16
2022-09-14T20:43:57.791Z,99799.13
2022-09-14T20:46:38.419Z,99807.22
2022-09-14T20:49:07.624Z,99806.63
2022-09-14T20:51:35.833Z,99805.28
2022-09-14T20:54:02.874Z,99800.25
2022-09-14T20:56:31.093Z,99805.53
2022-09-14T20:58:59.563Z,99806.09
2022-09-14T21:01:28.788Z,99811.34
2022-09-14T21:03:55.227Z,99801.06
2022-09-14T21:06:24.202Z,99801.31
2022-09-14T21:08:51.147Z,99807.47
2022-09-14T21:11:23.584Z,99803.06
2022-09-14T21:13:51.490Z,99810.00
2022-09-14T21:16:21.328Z,99810.84
2022-09-14T21:18:51.739Z,99806.44
2022-09-14T21:21:19.589Z,99803.66
2022-09-14T21:23:48.603Z,99801.69
2022-09-14T21:26:15.214Z,99804.75
2022-09-14T21:28:42.085Z,99809.22
2022-09-14T21:31:17.599Z,99811.16
2022-09-14T21:33:47.850Z,99804.75
2022-09-14T21:36:25.101Z,99815.91
2022-09-14T21:38:54.132Z,99819.25
2022-09-14T21:41:22.380Z,99814.81
2022-09-14T21:43:48.829Z,99820.63
2022-09-14T21:46:15.840Z,99822.63
2022-09-14T21:48:43.196Z,99817.59
2022-09-14T21:51:22.885Z,99813.13
2022-09-14T21:54:00.767Z,99814.81
2022-09-14T21:56:30.413Z,99817.31
2022-09-14T21:59:00.060Z,99823.72
2022-09-14T22:01:27.819Z,99826.78
2022-09-14T22:03:55.709Z,99827.59
2022-09-14T22:06:25.384Z,99822.63
2022-09-14T22:08:52.357Z,99829.56
2022-09-14T22:11:23.506Z,99821.53
2022-09-14T22:13:54.868Z,99831.81
2022-09-14T22:16:22.966Z,99833.19
2022-09-14T22:18:52.608Z,99831.53
2022-09-14T22:21:19.837Z,99835.41
2022-09-14T22:23:54.827Z,99839.88
2022-09-14T22:26:21.951Z,99840.16
2022-09-14T22:28:50.509Z,99841.25
2022-09-14T22:31:19.339Z,99844.03
2022-09-14T22:33:46.492Z,99841.56
2022-09-14T22:36:13.908Z,99841.31
2022-09-14T22:38:41.137Z,99849.38
2022-09-14T22:41:13.070Z,99853.00
2022-09-14T22:43:40.405Z,99847.72
2022-09-14T22:46:08.209Z,99858.31
2022-09-14T22:48:35.806Z,99852.16
2022-09-14T22:51:04.096Z,99860.53
2022-09-14T22:53:31.106Z,99860.25
2022-09-14T22:55:57.898Z,99858.06
2022-09-14T22:58:26.609Z,99858.63
2022-09-14T23:00:53.617Z,99860.59
2022-09-14T23:03:20.188Z,99865.06
2022-09-14T23:05:53.039Z,99866.69
2022-09-14T23:08:20.255Z,99868.09
2022-09-14T23:10:47.973Z,99877.81
2022-09-14T23:13:15.501Z,99881.19
2022-09-14T23:15:42.337Z,99879.50
2022-09-14T23:18:09.325Z,99879.81
2022-09-14T23:20:37.540Z,99873.94
2022-09-14T23:23:04.332Z,99873.94
2022-09-14T23:25:31.345Z,99885.06
2022-09-14T23:27:57.728Z,99879.50
2022-09-14T23:30:24.169Z,99879.81
2022-09-14T23:32:50.509Z,99877.28
2022-09-14T23:35:17.036Z,99872.03
2022-09-14T23:37:43.416Z,99868.97
2022-09-14T23:40:10.030Z,99882.34
2022-09-14T23:42:36.677Z,99884.28
2022-09-14T23:45:03.938Z,99885.66
2022-09-14T23:47:30.317Z,99883.16
2022-09-14T23:49:56.754Z,99878.44
2022-09-14T23:52:23.168Z,99888.44
2022-09-14T23:54:50.011Z,99890.66
2022-09-14T23:57:16.369Z,99885.09
2022-09-14T23:59:42.756Z,99889.28
